Time;durP1;ratioP1;P1;durP2;ratioP2;P2;SDS_P1;SDS_P2;PMS_P1;PMS_P2;Temp;Humidity;BMP_temperature;BMP_pressure;BME280_temperature;BME280_humidity;BME280_pressure;Samples;Min_cycle;Max_cycle;Signal;HPM_P1;HPM_P2
2022/11/22 00:02:05;;;;;;;0.20;0.20;;;3.00;99.90;;;;;;5148324;27;20054;-73
2022/11/22 00:04:41;;;;;;;0.10;0.10;;;3.00;99.90;;;;;;5151370;27;20030;-72
2022/11/22 00:07:25;;;;;;;0.20;0.20;;;3.00;99.90;;;;;;5144701;27;20050;-73
2022/11/22 00:09:51;;;;;;;0.20;0.20;;;3.00;99.90;;;;;;5140237;27;20038;-73
2022/11/22 00:12:17;;;;;;;0.13;0.13;;;3.00;99.90;;;;;;5130028;27;20481;-73
2022/11/22 00:14:42;;;;;;;0.20;0.20;;;3.00;99.90;;;;;;5146320;27;20123;-73
2022/11/22 00:17:08;;;;;;;0.20;0.20;;;3.00;99.90;;;;;;5147513;27;20039;-73
2022/11/22 00:19:34;;;;;;;0.20;0.20;;;3.00;99.90;;;;;;5125403;27;20526;-73
2022/11/22 00:22:00;;;;;;;0.20;0.20;;;3.00;99.90;;;;;;5152710;27;20362;-72
2022/11/22 00:24:26;;;;;;;0.20;0.20;;;3.00;99.90;;;;;;5143270;27;20043;-73
2022/11/22 00:26:52;;;;;;;0.13;0.13;;;3.00;99.90;;;;;;5125669;27;20387;-73
2022/11/22 00:29:17;;;;;;;0.20;0.20;;;3.00;99.90;;;;;;5150008;27;20078;-73
2022/11/22 00:31:43;;;;;;;0.20;0.20;;;3.40;99.90;;;;;;5152886;27;20470;-73
2022/11/22 00:34:08;;;;;;;0.20;0.20;;;3.00;99.90;;;;;;5125888;27;20050;-73
2022/11/22 00:36:34;;;;;;;0.10;0.10;;;3.00;99.90;;;;;;5125011;27;20039;-75
2022/11/22 00:39:00;;;;;;;0.20;0.20;;;3.00;99.90;;;;;;5152087;27;20050;-73
2022/11/22 00:41:25;;;;;;;0.20;0.20;;;3.00;99.90;;;;;;5130736;27;20055;-73
2022/11/22 00:43:51;;;;;;;0.20;0.20;;;3.00;99.90;;;;;;5146834;27;20119;-73
2022/11/22 00:46:16;;;;;;;0.20;0.20;;;3.00;99.90;;;;;;5123730;27;20073;-72
2022/11/22 00:48:42;;;;;;;0.20;0.20;;;2.90;99.90;;;;;;5141947;27;23932;-73
2022/11/22 00:51:08;;;;;;;0.20;0.20;;;3.00;99.90;;;;;;5149078;27;20500;-73
2022/11/22 00:53:33;;;;;;;0.20;0.20;;;3.00;99.90;;;;;;5127131;27;20053;-73
2022/11/22 00:55:59;;;;;;;0.20;0.20;;;3.00;99.90;;;;;;5126201;27;20039;-73
2022/11/22 00:58:25;;;;;;;0.15;0.15;;;3.00;99.90;;;;;;5148329;27;20043;-72
2022/11/22 01:00:50;;;;;;;0.20;0.20;;;3.00;99.90;;;;;;5129820;27;20130;-73
2022/11/22 01:03:16;;;;;;;0.20;0.20;;;2.90;99.90;;;;;;5145602;27;20099;-73
2022/11/22 01:05:42;;;;;;;0.20;0.20;;;2.90;99.90;;;;;;5149711;27;20058;-73
2022/11/22 01:08:08;;;;;;;0.20;0.20;;;3.00;99.90;;;;;;5129603;27;20043;-73
2022/11/22 01:10:35;;;;;;;0.17;0.17;;;3.00;99.90;;;;;;5148510;27;20034;-73
2022/11/22 01:13:02;;;;;;;0.20;0.20;;;2.90;99.90;;;;;;5129995;27;20069;-73
2022/11/22 01:15:28;;;;;;;0.20;0.20;;;2.90;99.90;;;;;;5148528;27;20133;-73
2022/11/22 01:17:53;;;;;;;0.20;0.20;;;3.00;99.90;;;;;;5146810;27;20117;-73
2022/11/22 01:20:19;;;;;;;0.20;0.20;;;2.90;99.90;;;;;;5131410;27;20437;-73
2022/11/22 01:22:44;;;;;;;0.20;0.20;;;2.90;99.90;;;;;;5147995;27;20047;-72
2022/11/22 01:25:10;;;;;;;0.20;0.20;;;2.90;99.90;;;;;;5146851;27;20043;-73
2022/11/22 01:27:36;;;;;;;0.20;0.20;;;2.90;99.90;;;;;;5129320;27;20051;-73
2022/11/22 01:30:02;;;;;;;0.20;0.20;;;2.90;99.90;;;;;;5126868;27;20038;-73
2022/11/22 01:32:28;;;;;;;0.20;0.20;;;2.90;99.90;;;;;;5148357;27;20437;-72
2022/11/22 01:34:53;;;;;;;0.20;0.20;;;2.90;99.90;;;;;;5128834;27;20086;-72
2022/11/22 01:37:19;;;;;;;0.20;0.20;;;2.90;99.90;;;;;;5131724;27;20133;-72
2022/11/22 01:39:45;;;;;;;0.20;0.20;;;2.90;99.90;;;;;;5144674;27;20485;-72
2022/11/22 01:42:11;;;;;;;0.20;0.20;;;2.90;99.90;;;;;;5147573;27;20084;-72
2022/11/22 01:44:41;;;;;;;0.20;0.20;;;2.90;99.90;;;;;;5143954;27;20038;-72
2022/11/22 01:47:24;;;;;;;0.20;0.20;;;2.90;99.90;;;;;;5144221;27;20039;-72
2022/11/22 01:50:03;;;;;;;0.20;0.20;;;2.80;99.90;;;;;;5129296;27;20415;-72
2022/11/22 01:52:33;;;;;;;0.20;0.20;;;2.90;99.90;;;;;;5120449;27;20084;-72
2022/11/22 01:55:04;;;;;;;0.20;0.20;;;2.90;99.90;;;;;;5141394;27;20039;-72
2022/11/22 01:57:34;;;;;;;0.20;0.20;;;2.90;99.90;;;;;;5147477;27;20038;-72
2022/11/22 02:00:05;;;;;;;0.20;0.20;;;2.90;99.90;;;;;;5127897;27;20120;-72
2022/11/22 02:02:33;;;;;;;0.20;0.20;;;2.90;99.90;;;;;;5128257;27;20462;-72
2022/11/22 02:05:02;;;;;;;0.20;0.20;;;2.90;99.90;;;;;;5129210;27;20528;-72
2022/11/22 02:07:40;;;;;;;0.20;0.20;;;2.90;99.90;;;;;;5127949;27;20043;-72
2022/11/22 02:10:06;;;;;;;0.20;0.20;;;2.90;99.90;;;;;;5148234;27;20030;-73
2022/11/22 02:12:34;;;;;;;0.20;0.20;;;2.90;99.90;;;;;;5146282;27;20043;-72
2022/11/22 02:15:00;;;;;;;0.20;0.20;;;2.90;99.90;;;;;;5144965;27;20113;-73
2022/11/22 02:17:26;;;;;;;0.20;0.20;;;2.90;99.90;;;;;;5127883;27;20042;-73
2022/11/22 02:19:52;;;;;;;0.20;0.20;;;2.90;99.90;;;;;;5149027;27;20034;-73
2022/11/22 02:22:41;;;;;;;0.20;0.20;;;2.90;99.90;;;;;;5131131;27;20494;-73
2022/11/22 02:25:15;;;;;;;0.20;0.20;;;3.00;99.90;;;;;;5141054;27;20030;-73
2022/11/22 02:27:41;;;;;;;0.20;0.20;;;2.90;99.90;;;;;;5127157;27;20047;-74
2022/11/22 02:30:08;;;;;;;0.20;0.20;;;2.90;99.90;;;;;;5129821;27;20100;-74
2022/11/22 02:32:33;;;;;;;0.20;0.20;;;3.00;99.90;;;;;;5127105;27;20050;-74
2022/11/22 02:34:59;;;;;;;0.20;0.20;;;2.90;99.90;;;;;;5147380;27;20037;-73
2022/11/22 02:37:29;;;;;;;0.20;0.20;;;2.90;99.90;;;;;;5130158;27;20054;-73
2022/11/22 02:40:06;;;;;;;0.20;0.20;;;3.00;99.90;;;;;;5140766;27;20051;-73
2022/11/22 02:42:32;;;;;;;0.20;0.20;;;3.00;99.90;;;;;;5139496;27;20034;-73
2022/11/22 02:44:58;;;;;;;0.20;0.20;;;3.00;99.90;;;;;;5146650;27;20035;-73
2022/11/22 02:47:23;;;;;;;0.20;0.20;;;3.40;99.90;;;;;;5126548;27;20043;-73
2022/11/22 02:49:52;;;;;;;0.20;0.20;;;3.00;99.90;;;;;;5142563;27;20035;-72
2022/11/22 02:52:18;;;;;;;0.20;0.20;;;3.00;99.90;;;;;;5125456;27;20505;-73
2022/11/22 02:54:45;;;;;;;0.20;0.20;;;3.00;99.90;;;;;;5142696;27;20497;-73
2022/11/22 02:57:10;;;;;;;0.17;0.17;;;3.00;99.90;;;;;;5143699;27;20722;-73
2022/11/22 02:59:36;;;;;;;0.20;0.20;;;3.00;99.90;;;;;;5147640;27;20049;-73
2022/11/22 03:02:02;;;;;;;0.20;0.20;;;3.00;99.90;;;;;;5120115;27;20043;-73
2022/11/22 03:04:27;;;;;;;0.20;0.20;;;3.00;99.90;;;;;;5135348;27;20054;-73
2022/11/22 03:06:55;;;;;;;0.20;0.20;;;3.00;99.90;;;;;;5129950;27;20121;-73
2022/11/22 03:09:21;;;;;;;0.20;0.20;;;3.00;99.90;;;;;;5122975;27;20100;-73
2022/11/22 03:11:47;;;;;;;0.20;0.20;;;3.00;99.90;;;;;;5115026;27;20373;-73
2022/11/22 03:14:14;;;;;;;0.20;0.20;;;3.10;99.90;;;;;;5140156;27;20134;-73
2022/11/22 03:16:43;;;;;;;0.17;0.17;;;3.10;99.90;;;;;;5125718;27;20043;-73
2022/11/22 03:19:12;;;;;;;0.20;0.20;;;3.10;99.90;;;;;;5120602;27;20065;-73
2022/11/22 03:21:39;;;;;;;0.20;0.20;;;3.10;99.90;;;;;;5137161;27;20082;-73
2022/11/22 03:24:06;;;;;;;0.17;0.17;;;3.10;99.90;;;;;;5138444;27;20414;-73
2022/11/22 03:26:32;;;;;;;0.10;0.10;;;3.10;99.90;;;;;;5117891;27;20080;-73
2022/11/22 03:28:58;;;;;;;0.20;0.20;;;3.10;99.90;;;;;;5121653;27;20494;-72
2022/11/22 03:31:23;;;;;;;0.20;0.20;;;3.10;99.90;;;;;;5143221;27;20039;-73
2022/11/22 03:33:49;;;;;;;0.20;0.20;;;3.10;99.90;;;;;;5140135;27;20398;-73
2022/11/22 03:36:15;;;;;;;0.20;0.20;;;3.10;99.90;;;;;;5141557;27;20053;-73
2022/11/22 03:38:40;;;;;;;0.20;0.20;;;3.20;99.90;;;;;;5142559;27;20039;-73
2022/11/22 03:41:06;;;;;;;0.10;0.10;;;3.10;99.90;;;;;;5119669;27;20650;-73
2022/11/22 03:43:32;;;;;;;0.20;0.20;;;3.20;99.90;;;;;;5142838;27;20042;-72
2022/11/22 03:45:57;;;;;;;0.20;0.20;;;3.20;99.90;;;;;;5141995;27;20133;-73
2022/11/22 03:48:23;;;;;;;0.20;0.20;;;3.20;99.90;;;;;;5127458;27;20054;-73
2022/11/22 03:50:48;;;;;;;0.20;0.20;;;3.10;99.90;;;;;;5120647;27;20108;-73
2022/11/22 03:53:14;;;;;;;0.20;0.20;;;3.20;99.90;;;;;;5143333;27;20039;-73
2022/11/22 03:55:40;;;;;;;0.20;0.20;;;3.20;99.90;;;;;;5124374;27;20046;-73
2022/11/22 03:58:06;;;;;;;0.20;0.20;;;3.20;99.90;;;;;;5137977;27;20049;-73
2022/11/22 04:00:32;;;;;;;0.20;0.20;;;3.20;99.90;;;;;;5126249;27;20082;-72
2022/11/22 04:02:58;;;;;;;0.20;0.20;;;3.20;99.90;;;;;;5141459;27;20034;-73
2022/11/22 04:05:24;;;;;;;0.20;0.20;;;3.20;99.90;;;;;;5127448;27;20038;-73
2022/11/22 04:07:54;;;;;;;0.20;0.20;;;3.20;99.90;;;;;;5125741;27;20035;-73
2022/11/22 04:10:21;;;;;;;0.15;0.15;;;3.20;99.90;;;;;;5126207;27;20051;-73
2022/11/22 04:12:47;;;;;;;0.20;0.20;;;3.30;99.90;;;;;;5144574;27;20569;-73
2022/11/22 04:15:13;;;;;;;0.20;0.20;;;3.30;99.90;;;;;;5147912;27;20113;-73
2022/11/22 04:17:40;;;;;;;0.20;0.20;;;3.30;99.90;;;;;;5124784;27;20126;-73
2022/11/22 04:23:09;;;;;;;0.20;0.20;;;3.30;99.90;;;;;;5117974;27;20074;-73
2022/11/22 04:25:37;;;;;;;0.20;0.20;;;3.30;99.90;;;;;;5145420;27;20042;-73
2022/11/22 04:28:05;;;;;;;0.20;0.20;;;3.30;99.90;;;;;;5142989;27;20039;-73
2022/11/22 04:33:16;;;;;;;0.20;0.20;;;3.40;99.90;;;;;;5147090;27;20106;-73
2022/11/22 04:35:42;;;;;;;0.10;0.10;;;3.40;99.90;;;;;;5150338;27;20042;-73
2022/11/22 04:38:08;;;;;;;0.20;0.20;;;3.40;99.90;;;;;;5148217;27;20051;-73
2022/11/22 04:40:34;;;;;;;0.15;0.15;;;3.40;99.90;;;;;;5130865;27;20050;-73
2022/11/22 04:45:44;;;;;;;0.20;0.20;;;3.40;99.90;;;;;;5147760;27;20397;-73
2022/11/22 04:48:11;;;;;;;0.20;0.20;;;3.50;99.90;;;;;;5146248;27;20123;-73
2022/11/22 04:53:22;;;;;;;0.20;0.20;;;3.50;99.90;;;;;;5141725;27;20482;-73
2022/11/22 04:55:48;;;;;;;0.20;0.20;;;3.50;99.90;;;;;;5127227;27;20038;-73
2022/11/22 04:58:15;;;;;;;0.20;0.20;;;3.60;99.90;;;;;;5146768;27;20039;-73
2022/11/22 05:00:40;;;;;;;0.20;0.20;;;3.50;99.90;;;;;;5145595;27;20061;-73
2022/11/22 05:03:07;;;;;;;0.20;0.20;;;3.50;99.90;;;;;;5121111;27;20502;-73
2022/11/22 05:05:37;;;;;;;0.10;0.10;;;3.60;99.90;;;;;;5128681;27;20060;-73
2022/11/22 05:08:04;;;;;;;0.20;0.20;;;3.60;99.90;;;;;;5122484;27;20080;-73
2022/11/22 05:10:55;;;;;;;0.20;0.20;;;3.60;99.90;;;;;;5128756;27;20034;-73
2022/11/22 05:13:17;;;;;;;0.20;0.20;;;3.60;99.90;;;;;;5136522;27;20042;-73
2022/11/22 05:15:43;;;;;;;0.20;0.20;;;3.60;99.90;;;;;;5147862;27;20159;-73
2022/11/22 05:18:08;;;;;;;0.10;0.10;;;3.60;99.90;;;;;;5143252;27;20042;-73
2022/11/22 05:20:35;;;;;;;0.20;0.20;;;3.60;99.90;;;;;;5130079;27;20031;-73
2022/11/22 05:25:45;;;;;;;0.17;0.17;;;3.60;99.90;;;;;;5150648;27;20038;-73
2022/11/22 05:28:11;;;;;;;0.15;0.15;;;3.70;99.90;;;;;;5124401;27;20573;-73
2022/11/22 05:30:40;;;;;;;0.10;0.10;;;3.70;99.90;;;;;;5149724;27;20392;-73
2022/11/22 05:33:07;;;;;;;0.20;0.20;;;3.70;99.90;;;;;;5144199;27;20038;-73
2022/11/22 05:35:32;;;;;;;0.10;0.10;;;3.70;99.90;;;;;;5126840;27;20489;-73
2022/11/22 05:37:58;;;;;;;0.20;0.20;;;3.70;99.90;;;;;;5132486;27;20050;-73
2022/11/22 05:40:24;;;;;;;0.20;0.20;;;3.70;99.90;;;;;;5151284;27;20556;-73
2022/11/22 05:42:50;;;;;;;0.20;0.20;;;3.70;99.90;;;;;;5145678;27;20047;-73
2022/11/22 05:45:16;;;;;;;0.20;0.20;;;3.80;99.90;;;;;;5146339;27;20551;-73
2022/11/22 05:47:42;;;;;;;0.20;0.20;;;3.80;99.90;;;;;;5146548;27;20039;-73
2022/11/22 05:50:08;;;;;;;0.20;0.20;;;3.80;99.90;;;;;;5127264;27;20042;-73
2022/11/22 05:52:34;;;;;;;0.10;0.10;;;3.80;99.90;;;;;;5144255;27;20027;-73
2022/11/22 05:54:59;;;;;;;0.20;0.20;;;3.80;99.90;;;;;;5150033;27;20038;-73
2022/11/22 05:57:25;;;;;;;0.10;0.10;;;3.80;99.90;;;;;;5126517;27;20064;-74
2022/11/22 05:59:51;;;;;;;0.20;0.20;;;5.20;99.90;;;;;;5149445;27;20129;-73
2022/11/22 06:02:17;;;;;;;0.20;0.20;;;3.80;99.90;;;;;;5140611;27;20214;-73
2022/11/22 06:04:43;;;;;;;0.20;0.20;;;3.90;99.90;;;;;;5123073;27;20062;-73
2022/11/22 06:07:08;;;;;;;0.10;0.10;;;3.90;99.90;;;;;;5146268;27;20042;-73
2022/11/22 06:09:34;;;;;;;0.20;0.20;;;3.90;99.90;;;;;;5146939;27;20053;-73
2022/11/22 06:11:59;;;;;;;0.20;0.20;;;3.90;99.90;;;;;;5143746;27;20160;-73
2022/11/22 06:14:25;;;;;;;0.17;0.17;;;3.90;99.90;;;;;;5131453;27;20047;-73
2022/11/22 06:16:51;;;;;;;0.20;0.20;;;4.00;99.90;;;;;;5148562;27;20042;-73
2022/11/22 06:19:16;;;;;;;0.20;0.20;;;4.00;99.90;;;;;;5146262;27;20156;-73
2022/11/22 06:21:42;;;;;;;0.20;0.20;;;4.00;99.90;;;;;;5127860;27;20524;-73
2022/11/22 06:24:08;;;;;;;0.10;0.10;;;4.00;99.90;;;;;;5123745;27;20626;-72
2022/11/22 06:26:35;;;;;;;0.20;0.20;;;4.00;99.90;;;;;;5128892;27;20034;-73
2022/11/22 06:29:01;;;;;;;0.10;0.10;;;4.10;99.90;;;;;;5144595;27;20050;-73
2022/11/22 06:31:27;;;;;;;0.20;0.20;;;4.10;99.90;;;;;;5131792;27;20122;-73
2022/11/22 06:33:55;;;;;;;0.20;0.20;;;4.10;99.90;;;;;;5130670;27;20038;-73
2022/11/22 06:36:23;;;;;;;0.20;0.20;;;4.10;99.90;;;;;;5148798;27;20043;-73
2022/11/22 06:38:49;;;;;;;0.20;0.20;;;4.10;99.90;;;;;;5145541;27;20075;-73
2022/11/22 06:41:17;;;;;;;0.10;0.10;;;4.10;99.90;;;;;;5125796;27;20089;-73
2022/11/22 06:43:44;;;;;;;0.10;0.10;;;4.10;99.90;;;;;;5128747;27;20058;-73
2022/11/22 06:46:13;;;;;;;0.20;0.20;;;4.10;99.90;;;;;;5123097;27;20039;-73
2022/11/22 06:48:40;;;;;;;0.20;0.20;;;4.10;99.90;;;;;;5146021;27;20087;-73
2022/11/22 06:51:10;;;;;;;0.20;0.20;;;4.20;99.90;;;;;;5129462;27;20382;-73
2022/11/22 06:53:36;;;;;;;0.20;0.20;;;4.20;99.90;;;;;;5121331;27;20470;-72
2022/11/22 06:56:14;;;;;;;0.20;0.20;;;4.20;99.90;;;;;;5145646;27;20039;-73
2022/11/22 06:58:40;;;;;;;0.13;0.13;;;4.20;99.90;;;;;;5135322;27;20031;-73
2022/11/22 07:01:11;;;;;;;0.10;0.10;;;4.20;99.90;;;;;;5125624;27;20050;-73
2022/11/22 07:03:39;;;;;;;0.10;0.10;;;4.20;99.90;;;;;;5143137;27;20094;-73
2022/11/22 07:06:06;;;;;;;0.20;0.20;;;4.30;99.90;;;;;;5145079;27;20427;-73
2022/11/22 07:08:32;;;;;;;0.10;0.10;;;4.20;99.90;;;;;;5141212;27;20039;-73
2022/11/22 07:11:06;;;;;;;0.13;0.13;;;4.30;99.90;;;;;;5149772;27;20072;-73
2022/11/22 07:13:33;;;;;;;0.15;0.15;;;4.30;99.90;;;;;;5140885;27;20060;-73
2022/11/22 07:16:00;;;;;;;0.20;0.20;;;4.30;99.90;;;;;;5125753;27;20042;-73
2022/11/22 07:18:27;;;;;;;0.20;0.20;;;4.30;99.90;;;;;;5146596;27;20055;-73
2022/11/22 07:20:58;;;;;;;0.20;0.20;;;4.30;99.90;;;;;;5148641;27;20043;-72
2022/11/22 07:23:24;;;;;;;0.20;0.20;;;4.30;99.90;;;;;;5141655;27;20043;-74
2022/11/22 07:25:49;;;;;;;0.13;0.13;;;4.40;99.90;;;;;;5123529;27;20053;-74
2022/11/22 07:28:15;;;;;;;0.28;0.28;;;4.30;99.90;;;;;;5137825;27;20096;-74
2022/11/22 07:30:41;;;;;;;0.20;0.20;;;4.40;99.90;;;;;;5146757;27;20039;-75
2022/11/22 07:33:07;;;;;;;0.20;0.20;;;4.40;99.90;;;;;;5139247;27;20034;-73
2022/11/22 07:35:34;;;;;;;0.10;0.10;;;4.40;99.90;;;;;;5123482;27;20042;-71
2022/11/22 07:37:59;;;;;;;0.20;0.20;;;4.40;99.90;;;;;;5147687;27;20083;-72
2022/11/22 07:40:25;;;;;;;0.20;0.20;;;4.50;99.90;;;;;;5146708;27;20058;-72
2022/11/22 07:42:51;;;;;;;0.20;0.20;;;4.50;99.90;;;;;;5117721;27;20047;-72
2022/11/22 07:45:17;;;;;;;0.20;0.20;;;4.50;99.90;;;;;;5116365;27;20064;-72
2022/11/22 07:47:42;;;;;;;0.10;0.10;;;4.50;99.90;;;;;;5128101;27;20038;-73
2022/11/22 07:50:09;;;;;;;0.20;0.20;;;4.50;99.90;;;;;;5143715;27;20042;-72
2022/11/22 07:52:34;;;;;;;0.20;0.20;;;4.50;99.90;;;;;;5126832;27;20076;-73
2022/11/22 07:55:00;;;;;;;0.15;0.15;;;4.60;99.90;;;;;;5130301;27;20378;-73
2022/11/22 07:57:26;;;;;;;0.20;0.20;;;4.90;99.90;;;;;;5121692;27;20409;-72
2022/11/22 07:59:51;;;;;;;0.20;0.20;;;4.60;99.90;;;;;;5151088;27;20434;-73
2022/11/22 08:02:17;;;;;;;0.20;0.20;;;4.60;99.90;;;;;;5143755;27;20429;-73
2022/11/22 08:04:43;;;;;;;0.20;0.20;;;4.70;99.90;;;;;;5126823;27;20092;-71
2022/11/22 08:07:09;;;;;;;0.20;0.20;;;4.70;99.90;;;;;;5128456;27;20199;-72
2022/11/22 08:09:35;;;;;;;0.10;0.10;;;4.80;99.90;;;;;;5124417;27;20034;-72
2022/11/22 08:12:01;;;;;;;0.10;0.10;;;4.80;99.90;;;;;;5143145;27;20103;-72
2022/11/22 08:14:27;;;;;;;0.20;0.20;;;4.80;99.90;;;;;;5147922;27;20027;-73
2022/11/22 08:16:53;;;;;;;0.20;0.20;;;4.90;99.90;;;;;;5142381;27;20375;-73
2022/11/22 08:19:19;;;;;;;0.10;0.10;;;4.90;99.90;;;;;;5128676;27;20063;-73
2022/11/22 08:21:45;;;;;;;0.20;0.20;;;5.00;99.90;;;;;;5143335;27;20078;-73
2022/11/22 08:24:11;;;;;;;0.13;0.13;;;5.00;99.90;;;;;;5138945;27;20750;-73
2022/11/22 08:26:37;;;;;;;0.20;0.20;;;5.10;99.90;;;;;;5122380;27;20124;-72
2022/11/22 08:29:07;;;;;;;0.20;0.20;;;5.10;99.90;;;;;;5138027;27;20544;-72
2022/11/22 08:31:33;;;;;;;0.20;0.20;;;5.10;99.90;;;;;;5131001;27;20130;-72
2022/11/22 08:33:59;;;;;;;0.10;0.10;;;5.20;99.90;;;;;;5129405;27;20113;-72
2022/11/22 08:36:26;;;;;;;0.20;0.20;;;5.20;99.90;;;;;;5122753;27;20510;-72
2022/11/22 08:38:52;;;;;;;0.20;0.20;;;5.30;99.90;;;;;;5142210;27;20066;-72
2022/11/22 08:41:17;;;;;;;0.15;0.15;;;5.30;99.90;;;;;;5141442;27;20041;-72
2022/11/22 08:43:43;;;;;;;0.20;0.20;;;5.30;99.90;;;;;;5125479;27;20450;-72
2022/11/22 08:46:09;;;;;;;0.20;0.20;;;5.30;99.90;;;;;;5114479;27;20035;-73
2022/11/22 08:48:36;;;;;;;0.20;0.20;;;5.40;99.90;;;;;;5139650;27;20050;-72
2022/11/22 08:51:05;;;;;;;0.13;0.13;;;5.40;99.90;;;;;;5126576;27;20066;-70
2022/11/22 08:53:32;;;;;;;0.20;0.20;;;5.50;99.90;;;;;;5148946;27;20075;-72
2022/11/22 08:55:59;;;;;;;0.10;0.10;;;5.50;99.90;;;;;;5150944;27;20058;-71
2022/11/22 08:58:25;;;;;;;0.10;0.10;;;5.50;99.90;;;;;;5124854;27;20051;-71
2022/11/22 09:00:50;;;;;;;0.20;0.20;;;5.60;99.90;;;;;;5143016;27;20473;-72
2022/11/22 09:03:16;;;;;;;0.20;0.20;;;5.60;99.90;;;;;;5119685;27;20035;-72
2022/11/22 09:05:42;;;;;;;0.20;0.20;;;5.70;99.90;;;;;;5140401;27;20043;-72
2022/11/22 09:08:10;;;;;;;0.10;0.10;;;5.70;99.90;;;;;;5144439;27;20043;-72
2022/11/22 09:10:38;;;;;;;0.20;0.20;;;5.70;99.90;;;;;;5149823;27;20043;-73
2022/11/22 09:13:04;;;;;;;0.10;0.10;;;5.70;99.90;;;;;;5119019;27;20031;-72
2022/11/22 09:15:30;;;;;;;0.10;0.10;;;6.00;99.90;;;;;;5126928;27;20103;-72
2022/11/22 09:18:00;;;;;;;0.10;0.10;;;5.80;99.90;;;;;;5118798;27;20038;-73
2022/11/22 09:20:27;;;;;;;0.20;0.20;;;5.80;99.90;;;;;;5142517;27;20034;-73
2022/11/22 09:22:52;;;;;;;0.20;0.20;;;5.80;99.90;;;;;;5145290;27;20043;-72
2022/11/22 09:25:18;;;;;;;0.20;0.20;;;5.80;99.90;;;;;;5125790;27;20523;-72
2022/11/22 09:27:43;;;;;;;0.20;0.20;;;5.80;99.90;;;;;;5144985;27;20039;-72
2022/11/22 09:30:10;;;;;;;0.20;0.20;;;5.80;99.90;;;;;;5144017;27;20031;-72
2022/11/22 09:32:35;;;;;;;0.20;0.20;;;5.80;99.90;;;;;;5141202;27;20055;-72
2022/11/22 09:35:01;;;;;;;0.20;0.20;;;5.90;99.90;;;;;;5118916;27;20043;-73
2022/11/22 09:37:27;;;;;;;0.20;0.20;;;5.90;99.90;;;;;;5123238;27;20066;-72
2022/11/22 09:39:52;;;;;;;0.17;0.17;;;5.90;99.90;;;;;;5136763;27;20058;-72
2022/11/22 09:42:38;;;;;;;0.10;0.10;;;5.90;99.90;;;;;;5146245;27;20449;-73
2022/11/22 09:45:22;;;;;;;0.20;0.20;;;5.90;99.90;;;;;;5121308;27;20130;-73
2022/11/22 09:47:57;;;;;;;0.20;0.20;;;5.90;99.90;;;;;;5138341;27;20046;-72
2022/11/22 09:50:31;;;;;;;0.20;0.20;;;5.80;99.90;;;;;;5135559;27;20184;-73
2022/11/22 09:53:07;;;;;;;0.10;0.10;;;5.80;99.90;;;;;;5116196;27;20055;-73
2022/11/22 09:55:38;;;;;;;0.15;0.15;;;5.80;99.90;;;;;;5115360;27;20609;-73
2022/11/22 09:58:22;;;;;;;0.20;0.20;;;5.80;99.90;;;;;;5134122;27;20529;-72
2022/11/22 10:00:48;;;;;;;0.10;0.10;;;5.80;99.90;;;;;;5141836;27;20533;-72
2022/11/22 10:03:46;;;;;;;0.10;0.10;;;5.80;99.90;;;;;;5131050;27;20039;-73
2022/11/22 10:06:21;;;;;;;0.20;0.20;;;5.80;99.90;;;;;;5149662;27;20042;-72
2022/11/22 10:09:08;;;;;;;0.13;0.13;;;6.00;99.90;;;;;;5146084;27;20085;-72
2022/11/22 10:11:48;;;;;;;0.10;0.10;;;5.80;99.90;;;;;;5116812;27;20030;-71
2022/11/22 10:14:52;;;;;;;0.20;0.20;;;5.90;99.90;;;;;;5126720;27;20079;-72
2022/11/22 10:17:50;;;;;;;0.20;0.20;;;5.90;99.90;;;;;;5132460;27;20099;-73
2022/11/22 10:20:22;;;;;;;0.20;0.20;;;6.00;99.90;;;;;;5117205;27;20038;-73
2022/11/22 10:22:48;;;;;;;0.15;0.15;;;6.00;99.90;;;;;;5142848;27;20069;-71
2022/11/22 10:25:14;;;;;;;0.10;0.10;;;6.00;99.90;;;;;;5120410;27;20478;-71
2022/11/22 10:27:40;;;;;;;0.20;0.20;;;6.00;99.90;;;;;;5137811;27;20057;-72
2022/11/22 10:30:13;;;;;;;0.20;0.20;;;6.00;99.90;;;;;;5122332;27;20045;-72
2022/11/22 10:32:54;;;;;;;0.20;0.20;;;6.10;99.90;;;;;;5117060;27;20418;-72
2022/11/22 10:35:29;;;;;;;0.20;0.20;;;6.10;99.90;;;;;;5119062;27;20079;-72
2022/11/22 10:38:24;;;;;;;0.10;0.10;;;6.10;99.90;;;;;;5124123;27;20484;-73
2022/11/22 10:41:24;;;;;;;0.13;0.13;;;6.10;99.90;;;;;;5122303;27;20039;-73
2022/11/22 10:44:04;;;;;;;0.20;0.20;;;6.20;99.90;;;;;;5120411;27;20449;-73
2022/11/22 10:46:44;;;;;;;0.20;0.20;;;6.20;99.90;;;;;;5140422;27;20744;-74
2022/11/22 10:49:43;;;;;;;0.17;0.17;;;6.20;99.90;;;;;;5142505;27;20039;-72
2022/11/22 10:52:52;;;;;;;0.10;0.10;;;6.20;99.90;;;;;;5139552;27;20067;-74
2022/11/22 10:55:36;;;;;;;0.10;0.10;;;6.30;99.90;;;;;;5101129;27;20043;-73
2022/11/22 10:58:20;;;;;;;0.20;0.20;;;7.10;99.90;;;;;;5126240;27;20042;-74
2022/11/22 11:00:54;;;;;;;0.20;0.20;;;8.50;99.90;;;;;;5143165;27;20398;-74
2022/11/22 11:03:26;;;;;;;0.20;0.20;;;8.50;99.90;;;;;;5133868;27;20034;-74
2022/11/22 11:06:03;;;;;;;0.20;0.20;;;8.60;99.90;;;;;;5117768;27;20050;-71
2022/11/22 11:08:40;;;;;;;0.20;0.20;;;8.60;99.90;;;;;;5135560;27;20099;-72
2022/11/22 11:11:06;;;;;;;0.20;0.20;;;8.50;99.90;;;;;;5141193;27;20073;-73
2022/11/22 11:13:46;;;;;;;0.17;0.17;;;8.40;99.90;;;;;;5112227;27;20600;-72
2022/11/22 11:16:19;;;;;;;0.20;0.20;;;8.30;99.90;;;;;;5119782;27;20043;-73
2022/11/22 11:19:18;;;;;;;0.20;0.20;;;8.50;99.90;;;;;;5144220;27;20043;-72
2022/11/22 11:21:43;;;;;;;0.10;0.10;;;8.20;99.90;;;;;;5089756;27;20096;-73
2022/11/22 11:24:18;;;;;;;0.20;0.20;;;8.10;99.90;;;;;;5134635;27;20440;-73
2022/11/22 11:26:53;;;;;;;0.20;0.20;;;7.90;99.90;;;;;;5130354;27;20031;-72
2022/11/22 11:29:18;;;;;;;0.20;0.20;;;7.90;99.90;;;;;;5113256;27;20043;-71
2022/11/22 11:31:47;;;;;;;0.10;0.10;;;7.70;99.90;;;;;;5137082;27;20042;-73
2022/11/22 11:34:25;;;;;;;0.10;0.10;;;7.60;99.90;;;;;;5121082;27;20043;-72
2022/11/22 11:36:55;;;;;;;0.20;0.20;;;7.50;99.90;;;;;;5131235;27;20438;-73
2022/11/22 11:39:34;;;;;;;0.10;0.10;;;7.50;99.90;;;;;;5129036;27;20070;-72
2022/11/22 11:42:18;;;;;;;0.10;0.10;;;7.40;99.90;;;;;;5140984;27;20047;-73
2022/11/22 11:44:44;;;;;;;0.20;0.20;;;7.40;99.90;;;;;;5118507;27;20063;-72
2022/11/22 11:47:33;;;;;;;0.10;0.10;;;7.30;99.90;;;;;;5144564;27;20062;-72
2022/11/22 11:49:59;;;;;;;0.20;0.20;;;7.30;99.90;;;;;;5126544;27;20066;-71
2022/11/22 11:52:27;;;;;;;0.10;0.10;;;7.20;99.90;;;;;;5149059;27;20049;-73
2022/11/22 11:54:55;;;;;;;0.10;0.10;;;7.20;99.90;;;;;;5121123;27;20043;-72
2022/11/22 11:57:34;;;;;;;0.20;0.20;;;7.20;99.90;;;;;;5133857;27;20049;-72
2022/11/22 12:00:02;;;;;;;0.15;0.15;;;7.20;99.90;;;;;;5146014;27;20095;-71
2022/11/22 12:02:45;;;;;;;0.10;0.10;;;7.20;99.90;;;;;;5146507;27;20046;-72
2022/11/22 12:05:10;;;;;;;0.10;0.10;;;7.30;99.90;;;;;;5121960;27;20051;-72
2022/11/22 12:07:36;;;;;;;0.20;0.20;;;7.30;99.90;;;;;;5126712;27;20042;-72
2022/11/22 12:10:28;;;;;;;0.20;0.20;;;7.50;99.90;;;;;;5140880;27;20054;-72
2022/11/22 12:13:01;;;;;;;0.20;0.20;;;8.30;99.90;;;;;;5141530;27;20031;-72
2022/11/22 12:15:34;;;;;;;0.10;0.10;;;8.60;99.90;;;;;;5120939;27;20062;-73
2022/11/22 12:18:23;;;;;;;0.10;0.10;;;8.80;99.90;;;;;;5137952;27;20043;-72
2022/11/22 12:20:56;;;;;;;0.10;0.10;;;8.70;99.90;;;;;;5138456;27;20034;-72
2022/11/22 12:23:54;;;;;;;0.20;0.20;;;8.60;99.90;;;;;;5113804;27;20449;-72
2022/11/22 12:26:20;;;;;;;0.20;0.20;;;8.50;99.90;;;;;;5119031;27;20031;-70
2022/11/22 12:28:46;;;;;;;0.20;0.20;;;8.50;99.90;;;;;;5125967;27;20031;-73
2022/11/22 12:31:36;;;;;;;0.10;0.10;;;8.60;99.90;;;;;;5119093;27;20061;-71
2022/11/22 12:34:09;;;;;;;0.10;0.10;;;8.60;99.90;;;;;;5136339;27;20030;-73
2022/11/22 12:36:40;;;;;;;0.10;0.10;;;8.50;99.90;;;;;;5136792;27;20050;-72
2022/11/22 12:39:10;;;;;;;;;;;8.50;99.90;;;;;;5145485;27;20039;-70
2022/11/22 12:41:37;;;;;;;0.10;0.10;;;8.40;99.90;;;;;;5146550;27;19919;-71
2022/11/22 12:44:09;;;;;;;0.10;0.10;;;8.50;99.90;;;;;;5121858;27;20062;-71
2022/11/22 12:46:39;;;;;;;0.10;0.10;;;8.20;99.90;;;;;;5144426;27;20034;-71
2022/11/22 12:49:25;;;;;;;0.10;0.10;;;8.20;99.90;;;;;;5146502;27;20050;-72
2022/11/22 12:52:00;;;;;;;0.10;0.10;;;8.10;99.90;;;;;;5118580;27;20748;-71
2022/11/22 12:54:33;;;;;;;0.20;0.20;;;8.00;99.90;;;;;;5149586;27;20086;-71
2022/11/22 12:57:09;;;;;;;0.10;0.10;;;8.00;99.90;;;;;;5145378;27;20058;-71
2022/11/22 12:59:43;;;;;;;0.20;0.20;;;7.90;99.90;;;;;;5146872;27;20050;-71
2022/11/22 13:02:39;;;;;;;0.10;0.10;;;7.90;99.90;;;;;;5126929;27;20519;-72
2022/11/22 13:05:16;;;;;;;0.10;0.10;;;7.80;99.90;;;;;;5133401;27;20427;-72
2022/11/22 13:08:02;;;;;;;0.10;0.10;;;7.80;99.90;;;;;;5150427;27;20027;-72
2022/11/22 13:10:46;;;;;;;0.10;0.10;;;7.80;99.90;;;;;;5131753;27;20035;-71
2022/11/22 13:13:39;;;;;;;0.20;0.20;;;7.70;99.90;;;;;;5131121;27;20062;-71
2022/11/22 13:16:10;;;;;;;0.10;0.10;;;7.80;99.90;;;;;;5151139;27;20542;-71
2022/11/22 13:18:54;;;;;;;0.17;0.17;;;7.60;99.90;;;;;;5150032;27;20042;-72
2022/11/22 13:21:41;;;;;;;0.10;0.10;;;7.60;99.90;;;;;;5130476;27;20039;-72
2022/11/22 13:24:45;;;;;;;0.10;0.10;;;7.60;99.90;;;;;;5124471;27;20043;-71
2022/11/22 13:27:24;;;;;;;0.10;0.10;;;7.50;99.90;;;;;;5142803;27;20486;-72